Woodburn, OR

7:48 PM PST en Noviembre 23, 2014 (GMT -0800)
Woodburn City Hall | Change Station
CLOSE
Current Station
Estación meteorológica personal
Location: Woodburn, OR
Altura: 187 ft
Estaciones meteorológicas cercanas

Alt 187 ft 45.14 °N, 122.86 °W | Updated 3 minutes ago

Muy nublado
Muy nublado
48.8 ° F
Sensación térmica 49 ° F
N
0.0
Viento Variable Viento desde NNO
Gusts 5.0 mph

Hoy
Alta -- | Baja -- ° F
--% Posibilidad de precipitaciones
Ayer
Alta -- | Baja -- ° F
Precip. -- pul
7:20 AM 4:35 PM
Creciente, 3% visible
Presión 30.32 pul
Visibilidad 10.0 Millas
Nubes Nubes dispersas 6000 ft
Vientos helados 49 ° F
Punto de rocío 47 ° F
Humedad 95%
Precipitaciones 0.00 pul
Espesor de la nieve No disponible.
UV 0 de una escala de 12
Polen .10 de una escala de 12
Calidad del aire No disponible.
Flu Activity No disponible.
METAR KUAO 240253Z AUTO 21003KT 10SM SCT060 09/08 A3032 RMK AO2 SLP268 60003 T00890083 53009

More Conditions Fewer Conditions

Presión 30.32 pul
Visibilidad 10.0 Millas
Nubes Nubes dispersas 6000 ft
Vientos helados 49 ° F
Punto de rocío 47 ° F
Humedad 95%
Precipitaciones 0.00 pul
Espesor de la nieve No disponible.
UV 0 de una escala de 12
Polen .10 de una escala de 12
Calidad del aire No disponible.
Flu Activity No disponible.
METAR KUAO 240253Z AUTO 21003KT 10SM SCT060 09/08 A3032 RMK AO2 SLP268 60003 T00890083 53009

More Conditions Fewer Conditions

10-Day Weather Forecast

Almanac

Astronomía

Nov. 23, 2014 Salida Puesta
Hora real
Crepúsculo civil
Crepúsculo náutico
Crepúsculo astronómico
Luna
Horas de luz
Horas de luz
Tomorrow will be .
, % of the Moon is Illuminated

Extremos de hoy

Máximos del estado Bajos del estado

Community

WunderPhotos

Upload Photos

1,773,262 ¡fotos cargadas!

WunderBlogs® & News

Nearby

Calidad del aire

  Calidad del aire Índice AQ Contaminante
Not available.

Grosos de nieve

Estación Profundido Altura

Actividad de terremotos

Ciudad Distance Mag. Tiempo y dato
Magnitud mínima muestra es 2,5.

Temperaturas de aguas costeras

Lugar Temperatura

Estaciones meteorológicas cercanas